Hit Tracker is now ESPN Home Run Tracker! Hit Tracker founder Greg Rybarczyk is now collaborating with the ESPN Stats & Information Group to continue tracking all MLB home runs, and helping baseball fans know "How Far It Really Went!™" Please credit any information on this site to ESPN Stats & Information Group. For more information and analysis on home runs, please contact founder Greg Rybarczyk. E-Mail ESPN Home Run Tracker
Main Page | Ballparks | Park Overlays | Glossary | Highlight Homers | Feedback | Bio | 3 Types of HR's | AAA Home Run Derby Last Updated: July 30, 2014, 10:50 pm PST
Welcome to the ESPN Home Run Tracker! Check out the ESPN MLB Scoreboard throughout the 2014 season! Contact us at grybar@hittrackeronline.com.
Season:
Ballpark detail for Minute Maid Park
Ballpark # of Home Runs HR per game Avg.
True
Distance
Avg.
Speed
Off
Bat
Avg.
Std.
Dist.
Minute Maid Park 112 2.04 385.7 102.3 384.1

Scatter Plot of Home Runs Minute Maid Park
 Overlay Ballpark:
Without range rings   With range rings

2014 Season Home Runs for Minute Maid Park
Click headers to sort
Date Video Path Hitter Hitter
Team
Pitcher Pitcher
Team
INN ^ Ballpark Type/
Luck
True
Dist.
Speed
Off
Bat
Elev.
Angle
Horiz.
Angle
Apex Impact Due To: Std.
Dist.
#
Parks
Wind Temp. Alt.
04/01/14 Video View Guzman, Jesus HOU Sabathia, CC NYY 1 Minute Maid ... JE 408 100.3 28.9 102.9 90 15 0 0 394 17
04/02/14 Video View Fowler, Dexter HOU Kuroda, Hiroki NYY 1 Minute Maid ... PL 422 104.6 28.1 80.1 100 0 0 0 421 29
04/04/14 Video View Trout, Mike LAA Harrell, Lucas HOU 1 Minute Maid ... ND 413 111.6 25.0 119.6 71 2 0 0 411 30
04/06/14 Video View Castro, Jason HOU Weaver, Jered LAA 1 Minute Maid ... PL 421 104.0 27.5 97.7 97 0 0 0 420 30
04/15/14 Video View Infante, Omar KC Harrell, Lucas HOU 1 Minute Maid ... JE 354 98.1 26.4 115.0 65 1 -1 0 353 1
04/24/14 Video View Donaldson, Josh OAK Oberholtzer, Brett HOU 1 Minute Maid ... ND 402 104.8 32.9 121.2 105 8 1 0 392 30
04/26/14 Video View Fowler, Dexter HOU Straily, Dan OAK 1 Minute Maid ... PL 413 100.7 29.3 76.4 91 17 1 0 395 26
04/29/14 Video View Werth, Jayson WSH Cosart, Jarred HOU 1 Minute Maid ... ND 398 102.7 28.7 108.2 91 0 1 0 398 30
05/17/14 Video View Castro, Jason HOU Noesi, Hector CHW 1 Minute Maid ... PL 360 100.8 25.7 59.6 62 3 0 0 357 18
06/15/14 Video View Fowler, Dexter HOU Price, David TB 1 Minute Maid ... ND 380 100.4 29.2 112.7 85 0 0 0 380 30
06/15/14 Video View Dominguez, Matt HOU Price, David TB 1 Minute Maid ... PL 415 102.8 28.7 98.6 101 0 0 0 414 29
06/24/14 Video View Springer, George HOU Harang, Aaron ATL 1 Minute Maid ... PL 465 113.5 22.7 85.3 86 0 0 0 465 30
06/30/14 Video View Springer, George HOU Walker, Taijuan SEA 1 Minute Maid ... ND 421 106.1 32.2 103.0 127 0 1 0 420 30
07/13/14 Video View Holt, Brock BOS Peacock, Brad HOU 1 Minute Maid ... ND 394 103.1 33.1 68.0 115 0 1 0 393 30
07/26/14 Video View Castro, Jason HOU Koehler, Tom MIA 1 Minute Maid ... PL 390 103.6 26.0 69.9 74 0 0 0 390 29
07/27/14 Video View Jones, Garrett MIA McHugh, Collin HOU 1 Minute Maid ... JE 375 97.7 33.8 75.3 113 0 1 0 375 18
07/27/14 Video View Altuve, Jose HOU Turner, Jacob MIA 1 Minute Maid ... JE 384 98.5 29.2 103.3 91 0 0 0 384 18
07/29/14 Video View Gonzalez, Marwin HOU Samardzija, Jeff OAK 1 Minute Maid ... PL 342 96.5 38.2 61.1 120 0 1 0 341 26
07/30/14 Video View Grossman, Robbie HOU Hammel, Jason OAK 1 Minute Maid ... JE 367 101.7 24.6 67.7 62 0 0 0 367 14
06/01/14 Video View Lough, David BAL Feldman, Scott HOU 2 Minute Maid ... PL 378 105.1 25.6 58.3 66 0 0 0 377 29
04/01/14 Video View Hoes, L.J. HOU Sabathia, CC NYY 2 Minute Maid ... PL 344 93.6 34.7 122.5 92 6 0 0 337 4
04/06/14 Video View Dominguez, Matt HOU Weaver, Jered LAA 2 Minute Maid ... ND 403 112.0 36.7 115.5 157 0 1 0 401 30
04/16/14 Video View Valencia, Danny KC Keuchel, Dallas HOU 2 Minute Maid ... PL 356 94.3 33.3 111.6 96 6 -2 0 352 2
04/26/14 Video View Carter, Chris HOU Straily, Dan OAK 2 Minute Maid ... PL 390 97.9 37.7 106.7 129 32 2 0 357 0
05/04/14 Video View Presley, Alex HOU Maurer, Brandon SEA 2 Minute Maid ... PL 388 101.3 33.6 71.2 117 0 1 0 387 30
05/13/14 Video View Hoes, L.J. HOU Harrison, Matt TEX 2 Minute Maid ... JE/L 364 95.6 28.2 103.8 79 0 0 0 365 2
05/14/14 Video View Rios, Alex TEX Feldman, Scott HOU 2 Minute Maid ... JE 368 102.2 23.6 109.7 60 0 0 0 368 4
05/18/14 Video View Carter, Chris HOU Danks, John CHW 2 Minute Maid ... ND 405 104.5 30.6 116.5 95 6 2 0 397 30
06/30/14 Video View Zunino, Mike SEA McHugh, Collin HOU 2 Minute Maid ... JE 348 95.0 37.6 106.2 125 0 1 0 347 1
06/30/14 Video View Gonzalez, Marwin HOU Walker, Taijuan SEA 2 Minute Maid ... PL 371 103.8 26.8 53.9 68 0 1 0 370 30
07/30/14 Video View Donaldson, Josh OAK Keuchel, Dallas HOU 2 Minute Maid ... ND 415 106.8 25.4 105.4 81 0 0 0 415 30
04/16/14 Video View Castro, Jason HOU Guthrie, Jeremy KC 3 Minute Maid ... PL 361 94.9 30.2 107.2 85 3 -1 0 360 2
04/24/14 Video View Callaspo, Alberto OAK Oberholtzer, Brett HOU 3 Minute Maid ... JE 362 102.0 23.3 110.5 57 0 0 0 362 1
05/12/14 Video View Beltre, Adrian TEX Peacock, Brad HOU 3 Minute Maid ... JE 392 108.0 21.7 106.4 58 0 0 0 392 25
05/18/14 Video View Dominguez, Matt HOU Danks, John CHW 3 Minute Maid ... PL 427 103.2 30.5 97.3 111 8 2 0 417 27
06/12/14 Video View Singleton, Jon HOU Miley, Wade ARI 3 Minute Maid ... ND 411 109.7 26.1 62.5 77 0 0 0 411 30
06/24/14 Video View Upton, B.J. ATL Feldman, Scott HOU 3 Minute Maid ... PL 346 92.8 34.4 109.7 100 0 1 0 345 1
07/02/14 Video View Gonzalez, Marwin HOU Young, Chris SEA 3 Minute Maid ... ND 388 106.2 26.8 55.9 71 0 2 0 386 30
07/12/14 Video View Castro, Jason HOU Peavy, Jake BOS 3 Minute Maid ... JE 379 102.2 37.4 77.0 148 0 1 0 377 21
07/28/14 Video View Vogt, Stephen OAK Oberholtzer, Brett HOU 3 Minute Maid ... ND 402 105.9 28.1 64.5 85 0 1 0 401 30
07/28/14 Video View Carter, Chris HOU Chavez, Jesse OAK 3 Minute Maid ... JE 422 107.5 21.5 93.8 69 0 0 0 422 23
04/06/14 Video View Guzman, Jesus HOU Weaver, Jered LAA 4 Minute Maid ... PL 358 96.1 33.4 114.8 98 0 0 0 357 15
06/11/14 Video View Hill, Aaron ARI Keuchel, Dallas HOU 4 Minute Maid ... PL 365 96.5 31.8 110.3 94 0 0 0 365 15
06/11/14 Video View Carter, Chris HOU McCarthy, Brandon ARI 4 Minute Maid ... PL 348 94.7 35.1 114.1 104 0 0 0 348 6
06/12/14 Video View Corporan, Carlos HOU Miley, Wade ARI 4 Minute Maid ... ND 403 104.9 28.8 112.6 91 0 1 0 403 30
06/13/14 Video View Singleton, Jon HOU Cobb, Alex TB 4 Minute Maid ... PL 366 96.9 34.7 107.7 114 0 1 0 365 13
06/24/14 Video View Upton, Justin ATL Feldman, Scott HOU 4 Minute Maid ... ND 437 109.6 24.8 101.7 86 0 1 0 436 30
06/27/14 Video View Castellanos, Nick DET Peacock, Brad HOU 4 Minute Maid ... PL 376 100.6 25.2 106.6 69 0 0 0 376 12
06/30/14 Video View Saunders, Michael SEA McHugh, Collin HOU 4 Minute Maid ... ND 417 109.2 27.2 64.3 85 0 1 0 416 30
06/30/14 Video View Miller, Brad SEA McHugh, Collin HOU 4 Minute Maid ... ND 394 109.1 25.0 57.7 67 0 1 0 393 30
07/12/14 Video View Ortiz, David BOS Oberholtzer, Brett HOU 4 Minute Maid ... ND 382 105.4 25.9 59.3 68 0 0 0 381 30
04/05/14 Video View Hamilton, Josh LAA Keuchel, Dallas HOU 5 Minute Maid ... JE 383 99.2 27.7 75.2 82 0 0 0 382 20
04/06/14 Video View Presley, Alex HOU Weaver, Jered LAA 5 Minute Maid ... JE 404 107.4 21.9 78.7 63 0 0 0 404 24
04/07/14 Video View Calhoun, Kole LAA Cosart, Jarred HOU 5 Minute Maid ... PL 372 101.0 26.0 68.1 70 -1 -1 0 372 21
04/15/14 Video View Corporan, Carlos HOU Ventura, Yordano KC 5 Minute Maid ... JE 342 93.8 34.6 64.7 99 1 -2 0 344 7
04/30/14 Video View Espinosa, Danny WSH Oberholtzer, Brett HOU 5 Minute Maid ... PL 355 95.0 31.7 111.8 90 0 -1 0 356 10
05/02/14 Video View Zunino, Mike SEA Peacock, Brad HOU 5 Minute Maid ... PL 352 99.8 38.6 108.9 143 -5 1 0 355 10
05/04/14 Video View Villar, Jonathan HOU Maurer, Brandon SEA 5 Minute Maid ... JE 360 96.2 27.5 107.4 73 0 1 0 360 1
05/13/14 Video View Corporan, Carlos HOU Germano, Justin TEX 5 Minute Maid ... ND 394 105.2 31.2 64.2 106 -6 -1 0 401 30
05/17/14 Video View Fowler, Dexter HOU Noesi, Hector CHW 5 Minute Maid ... PL 360 97.2 27.5 113.8 69 4 1 0 355 1
05/18/14 Video View Dominguez, Matt HOU Danks, John CHW 5 Minute Maid ... ND 408 105.8 29.7 118.0 92 5 2 0 401 30
06/14/14 Video View Longoria, Evan TB Cosart, Jarred HOU 5 Minute Maid ... PL 378 107.7 23.1 118.3 58 0 0 0 378 29
06/26/14 Video View Dominguez, Matt HOU Minor, Mike ATL 5 Minute Maid ... JE 420 111.0 21.7 102.4 65 0 0 0 419 30
06/29/14 Video View Avila, Alex DET Feldman, Scott HOU 5 Minute Maid ... ND 436 109.8 25.4 76.3 87 0 0 0 436 30
07/02/14 Video View Hernandez, Kike HOU Young, Chris SEA 5 Minute Maid ... PL 378 98.5 35.3 105.4 122 1 5 0 372 14
07/29/14 Video View Reddick, Josh OAK Feldman, Scott HOU 5 Minute Maid ... JE 343 98.7 26.2 55.5 60 0 0 0 343 10
07/30/14 Video View Singleton, Jon HOU Hammel, Jason OAK 5 Minute Maid ... PL 359 99.6 27.9 121.9 70 0 0 0 358 21
06/01/14 Video View Machado, Manny BAL Feldman, Scott HOU 6 Minute Maid ... ND 404 104.1 26.9 106.7 84 0 1 0 403 30
04/04/14 Video View Hamilton, Josh LAA Williams, Jerome HOU 6 Minute Maid ... PL 392 106.1 24.2 68.7 67 1 0 0 391 29
04/16/14 Video View Krauss, Marc HOU Guthrie, Jeremy KC 6 Minute Maid ... PL 355 93.0 34.5 110.5 100 12 -2 0 345 1
04/30/14 Video View Rendon, Anthony WSH Clemens, Paul HOU 6 Minute Maid ... PL 356 100.1 25.8 62.1 63 -1 -1 0 357 13
05/12/14 Video View Odor, Rougned TEX Peacock, Brad HOU 6 Minute Maid ... ND 431 111.0 25.7 70.1 84 0 0 0 430 30
05/16/14 Video View Dunn, Adam CHW McHugh, Collin HOU 6 Minute Maid ... ND 444 113.7 23.8 74.7 80 -1 0 0 444 30
07/11/14 Video View Carter, Chris HOU Lackey, John BOS 6 Minute Maid ... JE 348 101.0 24.6 122.6 56 0 0 0 348 4
07/27/14 Video View Ozuna, Marcell MIA McHugh, Collin HOU 6 Minute Maid ... ND 420 107.0 27.5 107.7 92 0 0 0 420 30
07/28/14 Video View Castro, Jason HOU Chavez, Jesse OAK 6 Minute Maid ... PL 431 106.3 25.8 83.3 92 0 0 0 431 28
07/28/14 Video View Krauss, Marc HOU Chavez, Jesse OAK 6 Minute Maid ... ND 417 112.2 25.4 60.7 75 0 1 0 417 30
07/28/14 Video View Dominguez, Matt HOU Otero, Dan OAK 6 Minute Maid ... ND 400 103.9 30.9 112.2 102 0 1 0 400 30
05/29/14 Video View Springer, George HOU Guilmet, Preston BAL 7 Minute Maid ... JE 353 102.3 23.1 115.7 53 0 0 0 353 1
04/02/14 Video View Dominguez, Matt HOU Phelps, David NYY 7 Minute Maid ... JE 350 96.0 28.5 63.9 71 0 0 0 349 7
04/04/14 Video View Calhoun, Kole LAA Williams, Jerome HOU 7 Minute Maid ... PL 376 107.8 22.0 66.2 54 0 0 0 376 20
04/06/14 Video View Villar, Jonathan HOU Shoemaker, Matt LAA 7 Minute Maid ... PL 358 96.4 33.4 64.6 98 0 0 0 358 24
04/24/14 Video View Donaldson, Josh OAK Bass, Anthony HOU 7 Minute Maid ... ND 448 109.5 24.5 97.1 88 3 0 0 445 30
04/27/14 Video View Altuve, Jose HOU Otero, Dan OAK 7 Minute Maid ... PL 354 95.5 31.1 115.6 84 0 0 0 353 10
05/03/14 Video View Carter, Chris HOU Iwakuma, Hisashi SEA 7 Minute Maid ... JE 342 95.1 29.2 119.5 71 0 0 0 342 1
05/03/14 Video View Villar, Jonathan HOU Leone, Dominic SEA 7 Minute Maid ... JE 358 94.6 28.6 105.4 78 0 0 0 358 1
05/03/14 Video View Smoak, Justin SEA Valdes, Raul HOU 7 Minute Maid ... ND 403 110.1 36.0 115.2 148 0 1 0 402 30
05/14/14 Video View Springer, George HOU Frasor, Jason TEX 7 Minute Maid ... ND 380 102.6 27.8 117.2 77 1 -1 0 380 30
06/11/14 Video View Carter, Chris HOU McCarthy, Brandon ARI 7 Minute Maid ... PL 355 97.0 28.7 64.0 74 0 0 0 355 13
06/12/14 Video View Owings, Chris ARI Feldman, Scott HOU 7 Minute Maid ... ND 396 102.1 31.2 108.9 105 0 0 0 395 30
06/25/14 Video View Upton, Justin ATL McHugh, Collin HOU 7 Minute Maid ... PL 440 108.4 25.0 82.3 90 0 0 0 439 30
06/26/14 Video View Springer, George HOU Jaime, Juan ATL 7 Minute Maid ... JE 424 112.2 20.9 100.8 64 0 0 0 424 30
06/30/14 Video View Cano, Robinson SEA Zeid, Josh HOU 7 Minute Maid ... PL 363 99.1 27.2 114.8 70 0 1 0 363 13
05/31/14 Video View Cruz, Nelson BAL Williams, Jerome HOU 8 Minute Maid ... PL 435 109.8 21.9 95.5 74 0 0 0 435 29
06/01/14 Video View Dominguez, Matt HOU Guilmet, Preston BAL 8 Minute Maid ... PL 374 98.2 32.8 109.2 105 0 0 0 374 23
04/07/14 Video View Corporan, Carlos HOU Wilson, C.J. LAA 8 Minute Maid ... JE 363 98.9 25.6 109.4 66 0 0 0 363 3
06/03/14 Video View Singleton, Jon HOU Shoemaker, Matt LAA 8 Minute Maid ... PL 429 106.9 24.4 82.4 83 0 0 0 428 29
06/03/14 Video View Carter, Chris HOU Shoemaker, Matt LAA 8 Minute Maid ... PL 343 94.9 36.5 61.7 108 0 1 0 342 19
06/03/14 Video View Hamilton, Josh LAA Sipp, Tony HOU 8 Minute Maid ... JE 376 104.3 23.1 70.3 59 0 0 0 375 18
06/03/14 Video View Cowgill, Collin LAA Fields, Josh HOU 8 Minute Maid ... PL 412 102.8 29.0 100.3 101 0 0 0 412 30
07/11/14 Video View Carter, Chris HOU Breslow, Craig BOS 8 Minute Maid ... PL 362 102.5 26.3 126.5 64 0 0 0 362 29
04/25/14 Video View Donaldson, Josh OAK Bass, Anthony HOU 9 Minute Maid ... ND 395 104.2 26.5 113.0 75 4 0 0 390 30
04/26/14 Video View Moss, Brandon OAK Williams, Jerome HOU 9 Minute Maid ... PL 388 102.4 31.5 75.5 120 -14 1 0 402 30
06/12/14 Video View Montero, Miguel ARI Qualls, Chad HOU 9 Minute Maid ... PL 384 100.1 27.4 105.8 81 0 0 0 384 22
06/28/14 Video View Kinsler, Ian DET Williams, Jerome HOU 9 Minute Maid ... PL 413 103.3 25.4 96.5 84 0 0 0 412 24
06/28/14 Video View Presley, Alex HOU Nathan, Joe DET 9 Minute Maid ... PL 393 101.5 29.7 71.8 95 0 0 0 393 30
07/01/14 Video View Seager, Kyle SEA Zeid, Josh HOU 9 Minute Maid ... ND 401 103.5 30.9 69.8 104 0 0 0 400 30
07/26/14 Video View Valdespin, Jordany MIA Qualls, Chad HOU 9 Minute Maid ... PL 354 94.3 32.6 110.3 94 0 0 0 354 3
07/27/14 Video View Singleton, Jon HOU Cishek, Steve MIA 9 Minute Maid ... JE 342 92.1 32.2 111.1 87 0 1 0 342 1
06/12/14 Video View Carter, Chris HOU Putz, J.J. ARI 10 Minute Maid ... JE 356 100.6 24.4 114.3 59 0 0 0 356 1
04/16/14 Video View Moustakas, Mike KC Williams, Jerome HOU 11 Minute Maid ... PL/L 363 98.0 39.9 71.2 140 26 -4 0 340 1
06/27/14 Video View Castro, Jason HOU Hardy, Blaine DET 11 Minute Maid ... PL 387 107.3 22.1 72.0 58 0 0 0 387 22


About HitTracker | Contact Us
© 2006-2009 HitTrackerOnline